createdAt,value
2018-10-09T00:00:12.091Z,22.50
2018-10-09T00:02:40.480Z,19.97
2018-10-09T00:05:08.861Z,21.80
2018-10-09T00:07:37.246Z,20.03
2018-10-09T00:10:05.626Z,20.13
2018-10-09T00:12:34.022Z,17.70
2018-10-09T00:15:02.402Z,15.87
2018-10-09T00:17:30.746Z,17.07
2018-10-09T00:19:59.196Z,16.40
2018-10-09T00:22:27.611Z,16.50
2018-10-09T00:24:55.953Z,17.43
2018-10-09T00:27:24.313Z,18.03
2018-10-09T00:29:52.623Z,20.73
2018-10-09T00:32:21.086Z,21.80
2018-10-09T00:34:49.431Z,23.30
2018-10-09T00:37:17.887Z,24.27
2018-10-09T00:39:46.212Z,28.20
2018-10-09T00:42:14.570Z,24.40
2018-10-09T00:44:42.944Z,23.13
2018-10-09T00:47:11.291Z,21.80
2018-10-09T00:49:39.632Z,17.60
2018-10-09T00:52:08.281Z,19.03
2018-10-09T00:54:36.792Z,22.20
2018-10-09T00:57:05.216Z,20.30
2018-10-09T00:59:33.541Z,27.10
2018-10-09T01:02:01.891Z,29.37
2018-10-09T01:04:30.254Z,24.17
2018-10-09T01:06:58.605Z,18.70
2018-10-09T01:09:27.072Z,20.53
2018-10-09T01:11:55.390Z,23.43
2018-10-09T01:14:23.809Z,23.97
2018-10-09T01:16:52.109Z,24.37
2018-10-09T01:19:20.456Z,24.13
2018-10-09T01:21:48.840Z,25.50
2018-10-09T01:24:17.229Z,28.03
2018-10-09T01:26:45.576Z,31.10
2018-10-09T01:29:14.622Z,32.23
2018-10-09T01:31:43.013Z,29.83
2018-10-09T01:34:11.705Z,37.07
2018-10-09T01:36:40.059Z,38.57
2018-10-09T01:39:09.390Z,39.27
2018-10-09T01:41:37.696Z,34.83
2018-10-09T01:44:06.344Z,29.03
2018-10-09T01:46:34.760Z,30.70
2018-10-09T01:49:03.091Z,30.10
2018-10-09T01:51:31.538Z,25.63
2018-10-09T01:53:59.883Z,25.93
2018-10-09T01:56:28.224Z,24.57
2018-10-09T01:58:56.577Z,23.97
2018-10-09T02:01:24.884Z,21.63
2018-10-09T02:03:53.309Z,24.00
2018-10-09T02:06:21.629Z,23.87
2018-10-09T02:08:50.076Z,26.33
2018-10-09T02:11:18.443Z,24.80
2018-10-09T02:13:46.772Z,23.97
2018-10-09T02:16:15.174Z,21.37
2018-10-09T02:18:43.486Z,20.97
2018-10-09T02:21:11.968Z,19.50
2018-10-09T02:23:40.412Z,19.30
2018-10-09T02:26:08.865Z,19.37
2018-10-09T02:28:37.216Z,19.50
2018-10-09T02:31:05.586Z,20.07
2018-10-09T02:33:33.991Z,23.87
2018-10-09T02:36:02.501Z,21.50
2018-10-09T02:38:30.841Z,21.93
2018-10-09T02:40:59.359Z,23.60
2018-10-09T02:43:27.736Z,28.50
2018-10-09T02:45:56.115Z,32.40
2018-10-09T02:48:24.499Z,30.77
2018-10-09T02:50:52.805Z,26.57
2018-10-09T02:53:21.152Z,28.60
2018-10-09T02:55:49.545Z,27.07
2018-10-09T02:58:17.864Z,22.90
2018-10-09T03:00:46.217Z,22.40
2018-10-09T03:03:14.522Z,23.03
2018-10-09T03:05:42.869Z,20.73
2018-10-09T03:08:11.265Z,20.83
2018-10-09T03:10:39.603Z,21.00
2018-10-09T03:13:07.926Z,20.10
2018-10-09T03:15:36.234Z,19.37
2018-10-09T03:18:04.573Z,18.47
2018-10-09T03:20:32.946Z,18.60
2018-10-09T03:23:01.214Z,18.43
2018-10-09T03:25:29.572Z,17.50
2018-10-09T03:27:57.942Z,19.27
2018-10-09T03:30:26.251Z,19.27
2018-10-09T03:32:54.542Z,18.37
2018-10-09T03:35:22.848Z,19.40
2018-10-09T03:37:51.352Z,19.83
2018-10-09T03:40:19.678Z,18.07
2018-10-09T03:42:48.061Z,20.47
2018-10-09T03:45:16.360Z,18.67
2018-10-09T03:47:44.727Z,19.17
2018-10-09T03:50:13.098Z,20.90
2018-10-09T03:52:41.426Z,20.33
2018-10-09T03:55:09.790Z,20.33
2018-10-09T03:57:38.225Z,19.40
2018-10-09T04:00:06.565Z,22.07
2018-10-09T04:02:34.878Z,19.53
2018-10-09T04:05:03.258Z,20.97
2018-10-09T04:07:31.638Z,19.80
2018-10-09T04:10:00.057Z,21.83
2018-10-09T04:12:28.422Z,22.10
2018-10-09T04:14:56.776Z,20.53
2018-10-09T04:17:25.093Z,20.50
2018-10-09T04:19:53.603Z,21.30
2018-10-09T04:22:23.172Z,23.13
2018-10-09T04:24:52.047Z,22.87
2018-10-09T04:27:20.649Z,20.40
2018-10-09T04:29:49.000Z,20.43
2018-10-09T04:32:17.385Z,20.20
2018-10-09T04:34:45.716Z,20.40
2018-10-09T04:37:14.049Z,20.03
2018-10-09T04:39:42.428Z,20.27
2018-10-09T04:42:10.786Z,19.27
2018-10-09T04:44:39.139Z,20.20
2018-10-09T04:47:07.475Z,19.07
2018-10-09T04:49:35.842Z,19.33
2018-10-09T04:52:04.289Z,19.07
2018-10-09T04:54:32.723Z,17.63
2018-10-09T04:57:01.046Z,19.33
2018-10-09T04:59:29.383Z,18.80
2018-10-09T05:01:57.767Z,18.00
2018-10-09T05:04:26.185Z,18.90
2018-10-09T05:06:54.562Z,20.60
2018-10-09T05:09:22.939Z,23.93
2018-10-09T05:11:51.289Z,20.07
2018-10-09T05:14:19.639Z,18.67
2018-10-09T05:16:48.021Z,15.90
2018-10-09T05:19:16.318Z,18.33
2018-10-09T05:21:44.757Z,18.57
2018-10-09T05:24:13.192Z,17.90
2018-10-09T05:26:41.563Z,17.50
2018-10-09T05:29:09.862Z,19.57
2018-10-09T05:31:38.193Z,19.17
2018-10-09T05:34:06.526Z,18.20
2018-10-09T05:36:34.883Z,20.17
2018-10-09T05:39:03.806Z,19.67
2018-10-09T05:41:32.163Z,17.40
2018-10-09T05:44:00.461Z,21.67
2018-10-09T05:46:28.802Z,22.23
2018-10-09T05:48:57.112Z,21.90
2018-10-09T05:51:25.501Z,21.70
2018-10-09T05:53:53.891Z,20.80
2018-10-09T05:56:22.245Z,20.83
2018-10-09T05:58:50.600Z,20.00
2018-10-09T06:01:18.940Z,20.27
2018-10-09T06:03:47.391Z,20.90
2018-10-09T06:06:15.732Z,20.10
2018-10-09T06:08:44.113Z,18.87
2018-10-09T06:11:12.473Z,18.17
2018-10-09T06:13:40.795Z,20.13
2018-10-09T06:16:09.205Z,21.80
2018-10-09T06:18:37.549Z,21.90
2018-10-09T06:21:06.146Z,24.50
2018-10-09T06:23:35.090Z,22.07
2018-10-09T06:26:03.488Z,19.30
2018-10-09T06:28:31.925Z,16.90
2018-10-09T06:31:00.226Z,17.90
2018-10-09T06:33:28.622Z,17.33
2018-10-09T06:35:57.402Z,19.13
2018-10-09T06:38:25.900Z,21.40
2018-10-09T06:40:54.274Z,18.03
2018-10-09T06:43:22.687Z,22.07
2018-10-09T06:45:51.029Z,20.23
2018-10-09T06:48:19.463Z,23.47
2018-10-09T06:50:47.821Z,22.40
2018-10-09T06:53:16.261Z,22.00
2018-10-09T06:55:44.721Z,22.87
2018-10-09T06:58:13.116Z,23.30
2018-10-09T07:00:41.530Z,20.10
2018-10-09T07:03:09.882Z,20.30
2018-10-09T07:05:38.215Z,21.33
2018-10-09T07:08:06.889Z,20.20
2018-10-09T07:10:35.309Z,22.37
2018-10-09T07:13:03.681Z,16.40
2018-10-09T07:15:32.052Z,17.10
2018-10-09T07:18:00.489Z,15.60
2018-10-09T07:20:28.860Z,13.83
2018-10-09T07:22:57.169Z,12.57
2018-10-09T07:25:25.520Z,13.77
2018-10-09T07:27:53.944Z,10.90
2018-10-09T07:30:22.306Z,10.80
2018-10-09T07:32:50.697Z,10.93
2018-10-09T07:35:19.023Z,9.73
2018-10-09T07:37:47.457Z,11.30
2018-10-09T07:40:15.917Z,11.80
2018-10-09T07:42:44.445Z,10.63
2018-10-09T07:45:12.896Z,10.10
2018-10-09T07:47:41.376Z,10.70
2018-10-09T07:50:09.744Z,11.00
2018-10-09T07:52:38.141Z,10.00
2018-10-09T07:55:06.520Z,10.10
2018-10-09T07:57:35.407Z,10.87
2018-10-09T08:00:03.757Z,9.67
2018-10-09T08:02:32.248Z,11.53
2018-10-09T08:05:00.782Z,10.87
2018-10-09T08:07:29.219Z,11.43
2018-10-09T08:09:57.561Z,12.00
2018-10-09T08:12:25.927Z,11.50
2018-10-09T08:14:54.310Z,11.77
2018-10-09T08:17:22.691Z,11.43
2018-10-09T08:19:51.143Z,12.80
2018-10-09T08:22:19.663Z,13.17
2018-10-09T08:24:48.351Z,13.57
2018-10-09T08:27:16.769Z,12.30
2018-10-09T08:29:45.123Z,13.87
2018-10-09T08:32:13.577Z,12.20
2018-10-09T08:34:41.974Z,14.70
2018-10-09T08:37:10.308Z,21.93
2018-10-09T08:39:38.738Z,22.00
2018-10-09T08:42:07.289Z,23.00
2018-10-09T08:44:35.746Z,24.10
2018-10-09T08:47:04.150Z,22.03
2018-10-09T09:50:22.281Z,22.90
2018-10-09T09:52:51.036Z,23.20
2018-10-09T09:55:19.479Z,25.50
2018-10-09T09:57:47.934Z,24.57
2018-10-09T10:00:21.618Z,24.50
2018-10-09T10:02:50.007Z,24.27
2018-10-09T10:05:18.449Z,23.97
2018-10-09T10:07:46.828Z,23.77
2018-10-09T10:10:15.339Z,22.43
2018-10-09T10:12:43.818Z,23.20
2018-10-09T10:15:12.233Z,24.80
2018-10-09T10:17:40.692Z,23.93
2018-10-09T10:20:09.195Z,23.10
2018-10-09T10:22:37.689Z,23.03
2018-10-09T10:25:06.051Z,25.17
2018-10-09T10:27:34.459Z,25.33
2018-10-09T10:30:02.849Z,23.37
2018-10-09T10:32:31.181Z,22.90
2018-10-09T10:34:59.592Z,25.60
2018-10-09T10:37:28.027Z,23.00
2018-10-09T10:39:56.417Z,24.07
2018-10-09T10:42:24.837Z,23.77
2018-10-09T10:44:53.206Z,22.80
2018-10-09T10:47:21.571Z,23.30
2018-10-09T10:49:49.961Z,23.40
2018-10-09T10:52:18.357Z,24.30
2018-10-09T10:54:46.739Z,23.40
2018-10-09T10:57:15.165Z,22.87
2018-10-09T10:59:43.553Z,23.73
2018-10-09T11:02:11.928Z,21.60
2018-10-09T11:04:40.262Z,22.80
2018-10-09T11:07:08.664Z,23.07
2018-10-09T11:09:37.108Z,20.90
2018-10-09T11:12:05.577Z,22.97
2018-10-09T11:14:33.955Z,22.20
2018-10-09T11:17:02.414Z,20.53
2018-10-09T11:19:30.752Z,19.83
2018-10-09T11:21:59.150Z,21.90
2018-10-09T11:24:27.556Z,21.63
2018-10-09T11:26:56.026Z,20.20
2018-10-09T11:29:24.491Z,19.90
2018-10-09T11:31:52.869Z,21.50
2018-10-09T11:34:21.249Z,21.73
2018-10-09T11:36:49.631Z,20.33
2018-10-09T11:39:17.996Z,20.80
2018-10-09T11:41:46.442Z,19.13
2018-10-09T11:44:14.832Z,18.00
2018-10-09T11:46:43.202Z,17.50
2018-10-09T11:49:11.636Z,18.90
2018-10-09T11:51:40.029Z,18.90
2018-10-09T11:54:08.421Z,16.33
2018-10-09T11:56:36.822Z,16.07
2018-10-09T11:59:05.348Z,15.93
2018-10-09T12:01:33.699Z,16.57
2018-10-09T12:04:02.040Z,15.53
2018-10-09T12:06:30.423Z,13.00
2018-10-09T12:08:58.844Z,13.77
2018-10-09T12:11:27.188Z,12.13
2018-10-09T12:13:55.630Z,12.53
2018-10-09T12:16:23.977Z,14.30
2018-10-09T12:18:52.488Z,13.83
2018-10-09T12:21:20.881Z,13.00
2018-10-09T12:23:49.360Z,14.90
2018-10-09T12:26:17.724Z,14.20
2018-10-09T12:28:46.078Z,12.80
2018-10-09T12:31:14.477Z,12.90
2018-10-09T12:33:42.809Z,13.20
2018-10-09T12:36:11.244Z,12.67
2018-10-09T12:38:39.617Z,14.00
2018-10-09T12:41:08.065Z,14.20
2018-10-09T12:43:36.488Z,12.67
2018-10-09T12:46:05.038Z,13.80
2018-10-09T12:48:33.517Z,16.23
2018-10-09T12:51:01.922Z,15.03
2018-10-09T12:53:30.338Z,16.90
2018-10-09T12:55:58.813Z,15.40
2018-10-09T12:58:27.217Z,14.77
2018-10-09T13:00:55.632Z,11.00
2018-10-09T13:03:24.020Z,11.00
2018-10-09T13:05:52.425Z,10.93
2018-10-09T13:08:20.783Z,11.17
2018-10-09T13:10:49.182Z,11.30
2018-10-09T13:13:17.680Z,10.73
2018-10-09T13:15:46.063Z,12.07
2018-10-09T13:18:14.539Z,11.40
2018-10-09T13:20:42.919Z,12.10
2018-10-09T13:23:11.273Z,10.37
2018-10-09T13:25:39.771Z,12.30
2018-10-09T13:28:08.189Z,13.17
2018-10-09T13:30:36.572Z,12.43
2018-10-09T13:33:04.920Z,13.77
2018-10-09T13:35:34.608Z,12.87
2018-10-09T13:38:03.057Z,12.57
2018-10-09T13:40:31.359Z,11.87
2018-10-09T13:42:59.745Z,12.60
2018-10-09T13:45:28.102Z,12.87
2018-10-09T13:47:56.432Z,13.83
2018-10-09T13:50:24.857Z,13.83
2018-10-09T13:52:53.247Z,13.17
2018-10-09T13:55:21.735Z,12.23
2018-10-09T13:57:50.036Z,14.90
2018-10-09T14:00:18.442Z,14.10
2018-10-09T14:02:46.910Z,13.80
2018-10-09T14:05:15.268Z,14.43
2018-10-09T14:07:43.777Z,13.83
2018-10-09T14:10:12.211Z,13.93
2018-10-09T14:12:40.608Z,13.90
2018-10-09T14:15:09.075Z,12.70
2018-10-09T14:17:37.394Z,14.00
2018-10-09T14:20:05.801Z,13.33
2018-10-09T14:22:34.244Z,14.07
2018-10-09T14:25:02.541Z,12.57
2018-10-09T14:27:30.943Z,12.47
2018-10-09T14:29:59.268Z,13.13
2018-10-09T14:32:27.626Z,13.67
2018-10-09T14:34:56.109Z,13.50
2018-10-09T14:37:24.501Z,13.33
2018-10-09T14:39:52.878Z,12.53
2018-10-09T14:42:21.248Z,13.30
2018-10-09T14:44:49.654Z,13.10
2018-10-09T14:47:18.030Z,13.60
2018-10-09T14:49:46.452Z,12.93
2018-10-09T14:52:14.857Z,12.87
2018-10-09T14:54:43.205Z,13.10
2018-10-09T14:57:11.553Z,14.10
2018-10-09T14:59:39.923Z,12.83
2018-10-09T15:02:08.360Z,14.60
2018-10-09T15:04:36.801Z,13.47
2018-10-09T15:07:05.178Z,13.33
2018-10-09T15:09:33.537Z,13.17
2018-10-09T15:12:01.890Z,12.73
2018-10-09T15:14:30.270Z,12.13
2018-10-09T15:16:58.676Z,13.20
2018-10-09T15:19:26.997Z,13.00
2018-10-09T15:21:55.361Z,13.57
2018-10-09T15:24:23.734Z,13.43
2018-10-09T15:26:52.066Z,13.57
2018-10-09T15:29:20.638Z,13.70
2018-10-09T15:31:49.005Z,14.63
2018-10-09T15:34:17.386Z,14.13
2018-10-09T15:36:45.748Z,13.40
2018-10-09T15:39:14.116Z,13.73
2018-10-09T15:41:43.250Z,13.30
2018-10-09T15:44:11.528Z,13.80
2018-10-09T15:46:40.002Z,13.60
2018-10-09T15:49:08.348Z,14.33
2018-10-09T15:51:36.741Z,14.47
2018-10-09T15:54:05.115Z,15.10
2018-10-09T15:56:33.626Z,16.37
2018-10-09T15:59:01.932Z,16.40
2018-10-09T16:01:30.324Z,17.90
2018-10-09T16:03:58.712Z,17.37
2018-10-09T16:06:27.085Z,19.10
2018-10-09T16:08:55.513Z,19.03
2018-10-09T16:11:23.879Z,18.60
2018-10-09T16:13:52.260Z,20.17
2018-10-09T16:16:20.627Z,21.40
2018-10-09T16:18:49.047Z,22.93
2018-10-09T16:21:17.440Z,22.70
2018-10-09T16:23:45.881Z,23.10
2018-10-09T16:26:14.379Z,22.43
2018-10-09T16:28:42.753Z,21.67
2018-10-09T16:31:11.129Z,22.90
2018-10-09T16:33:39.557Z,22.97
2018-10-09T16:36:07.998Z,25.50
2018-10-09T16:38:36.441Z,25.10
2018-10-09T16:41:04.906Z,24.77
2018-10-09T16:43:33.347Z,23.23
2018-10-09T16:46:01.846Z,23.37
2018-10-09T16:48:30.256Z,23.63
2018-10-09T16:50:58.667Z,24.30
2018-10-09T16:53:27.182Z,24.53
2018-10-09T16:55:55.604Z,24.90
2018-10-09T16:58:24.025Z,25.23
2018-10-09T17:00:52.415Z,24.13
2018-10-09T17:03:20.868Z,25.87
2018-10-09T17:05:49.308Z,24.40
2018-10-09T17:08:17.701Z,24.53
2018-10-09T17:10:46.382Z,26.33
2018-10-09T17:13:14.707Z,25.73
2018-10-09T17:15:43.279Z,25.57
2018-10-09T17:18:11.633Z,23.97
2018-10-09T17:20:40.020Z,25.70
2018-10-09T17:23:08.510Z,25.67
2018-10-09T17:25:36.887Z,26.50
2018-10-09T17:28:05.313Z,25.70
2018-10-09T17:30:33.724Z,25.80
2018-10-09T17:33:02.202Z,26.20
2018-10-09T17:35:30.533Z,25.50
2018-10-09T17:37:58.946Z,27.17
2018-10-09T17:40:27.297Z,31.63
2018-10-09T17:42:55.759Z,28.27
2018-10-09T17:45:24.193Z,29.83
2018-10-09T17:47:52.616Z,27.03
2018-10-09T17:50:21.072Z,27.10
2018-10-09T17:52:49.551Z,29.10
2018-10-09T17:55:17.957Z,28.77
2018-10-09T17:57:46.326Z,27.77
2018-10-09T18:00:14.783Z,30.00
2018-10-09T18:02:43.317Z,28.40
2018-10-09T18:05:11.733Z,28.37
2018-10-09T18:07:40.096Z,32.37
2018-10-09T18:10:08.534Z,28.80
2018-10-09T18:12:36.940Z,28.70
2018-10-09T18:15:05.455Z,27.73
2018-10-09T18:17:33.773Z,27.47
2018-10-09T18:20:02.188Z,30.07
2018-10-09T18:22:30.591Z,28.57
2018-10-09T18:24:59.092Z,28.80
2018-10-09T18:27:27.548Z,30.80
2018-10-09T18:29:56.049Z,30.40
2018-10-09T18:32:24.500Z,29.53
2018-10-09T18:34:52.985Z,30.80
2018-10-09T18:37:21.608Z,30.70
2018-10-09T18:39:49.972Z,29.87
2018-10-09T18:42:18.464Z,33.13
2018-10-09T18:44:46.898Z,32.00
2018-10-09T18:47:20.670Z,31.23
2018-10-09T18:49:49.254Z,30.10
2018-10-09T18:52:17.582Z,32.03
2018-10-09T18:54:46.091Z,33.50
2018-10-09T18:57:14.524Z,35.70
2018-10-09T18:59:42.949Z,38.37
2018-10-09T19:02:11.358Z,36.03
2018-10-09T19:04:39.797Z,35.10
2018-10-09T19:07:08.098Z,34.80
2018-10-09T19:09:36.462Z,35.10
2018-10-09T19:12:04.858Z,38.07
2018-10-09T19:14:33.283Z,35.83
2018-10-09T19:17:01.650Z,35.97
2018-10-09T19:19:30.059Z,33.53
2018-10-09T19:21:58.499Z,34.50
2018-10-09T19:24:26.901Z,32.00
2018-10-09T19:26:55.335Z,33.00
2018-10-09T19:29:23.703Z,35.50
2018-10-09T19:31:52.149Z,34.93
2018-10-09T19:34:20.574Z,36.60
2018-10-09T19:36:48.988Z,36.17
2018-10-09T19:39:17.408Z,36.87
2018-10-09T19:41:45.822Z,38.33
2018-10-09T19:44:14.231Z,38.83
2018-10-09T19:46:42.649Z,39.73
2018-10-09T19:49:11.077Z,38.90
2018-10-09T19:51:39.641Z,36.97
2018-10-09T19:54:08.099Z,37.53
2018-10-09T19:56:36.518Z,40.63
2018-10-09T19:59:04.974Z,38.73
2018-10-09T20:01:33.296Z,40.53
2018-10-09T20:04:01.697Z,39.27
2018-10-09T20:06:30.216Z,38.83
2018-10-09T20:08:58.602Z,39.97
2018-10-09T20:11:26.968Z,37.40
2018-10-09T20:13:55.444Z,40.30
2018-10-09T20:16:23.843Z,38.00
2018-10-09T20:18:52.259Z,37.83
2018-10-09T20:21:20.674Z,40.10
2018-10-09T20:23:49.092Z,39.83
2018-10-09T20:26:18.221Z,40.97
2018-10-09T20:28:46.645Z,41.20
2018-10-09T20:31:15.133Z,41.90
2018-10-09T20:33:45.462Z,38.03
2018-10-09T20:36:13.807Z,40.60
2018-10-09T20:38:44.787Z,36.73
2018-10-09T20:41:13.456Z,36.97
2018-10-09T20:43:41.785Z,34.93
2018-10-09T20:46:10.362Z,36.07
2018-10-09T20:48:38.882Z,34.73
2018-10-09T20:51:07.458Z,37.63
2018-10-09T20:53:35.815Z,36.50
2018-10-09T20:56:05.339Z,39.67
2018-10-09T20:58:33.813Z,38.90
2018-10-09T21:01:02.221Z,39.57
2018-10-09T21:03:30.725Z,39.60
2018-10-09T21:06:00.155Z,38.97
2018-10-09T21:08:28.473Z,39.30
2018-10-09T21:10:56.991Z,38.37
2018-10-09T21:13:25.485Z,42.80
2018-10-09T21:15:53.897Z,39.87
2018-10-09T21:18:22.314Z,41.40
2018-10-09T21:20:50.665Z,42.93
2018-10-09T21:23:19.014Z,41.27
2018-10-09T21:25:48.284Z,41.90
2018-10-09T21:28:16.613Z,42.73
2018-10-09T21:30:44.998Z,42.37
2018-10-09T21:33:13.336Z,41.60
2018-10-09T21:35:41.638Z,41.17
2018-10-09T21:38:10.013Z,43.47
2018-10-09T21:40:38.374Z,45.60
2018-10-09T21:43:06.891Z,42.77
2018-10-09T21:45:35.282Z,43.43
2018-10-09T21:48:04.648Z,47.03
2018-10-09T21:50:32.990Z,47.13
2018-10-09T21:53:01.335Z,47.70
2018-10-09T21:55:29.861Z,45.47
2018-10-09T21:57:58.669Z,44.57
2018-10-09T22:00:27.102Z,44.50
2018-10-09T22:02:55.501Z,46.73
2018-10-09T22:05:23.911Z,46.50
2018-10-09T22:07:52.352Z,45.20
2018-10-09T22:10:20.724Z,44.93
2018-10-09T22:12:49.074Z,40.80
2018-10-09T22:15:17.449Z,43.30
2018-10-09T22:17:46.666Z,43.57
2018-10-09T22:20:15.107Z,43.40
2018-10-09T22:22:43.401Z,42.30
2018-10-09T22:25:11.690Z,47.07
2018-10-09T22:27:40.029Z,43.13
2018-10-09T22:30:08.944Z,41.37
2018-10-09T22:32:37.322Z,43.30
2018-10-09T22:35:05.630Z,40.40
2018-10-09T22:37:34.748Z,39.80
2018-10-09T22:40:03.142Z,39.17
2018-10-09T22:42:31.459Z,37.27
2018-10-09T22:44:59.813Z,34.77
2018-10-09T22:47:28.137Z,37.13
2018-10-09T22:49:57.008Z,37.00
2018-10-09T22:52:25.366Z,34.30
2018-10-09T22:54:54.101Z,34.03
2018-10-09T22:57:22.456Z,33.00
2018-10-09T22:59:50.739Z,33.00
2018-10-09T23:02:21.575Z,34.20
2018-10-09T23:04:49.873Z,31.47
2018-10-09T23:07:18.154Z,32.60
2018-10-09T23:09:46.474Z,31.80
2018-10-09T23:12:14.757Z,32.80
2018-10-09T23:14:43.127Z,28.57
2018-10-09T23:17:11.437Z,30.80
2018-10-09T23:19:39.798Z,29.87
2018-10-09T23:22:08.125Z,27.90
2018-10-09T23:24:37.061Z,29.90
2018-10-09T23:27:05.369Z,28.47
2018-10-09T23:29:33.740Z,28.00
2018-10-09T23:32:02.079Z,28.40
2018-10-09T23:34:30.432Z,27.90
2018-10-09T23:36:58.802Z,29.60
2018-10-09T23:39:27.122Z,29.33
2018-10-09T23:41:55.465Z,29.20
2018-10-09T23:44:23.804Z,28.90
2018-10-09T23:46:52.105Z,29.50
2018-10-09T23:49:20.383Z,29.60
2018-10-09T23:51:48.790Z,28.50
2018-10-09T23:54:17.097Z,29.30
2018-10-09T23:56:46.035Z,27.63
2018-10-09T23:59:14.348Z,28.33
